Terminal Aerodrome Forecast
Issued by NWS

Home | Current Version | Previous Version | Text Only | Print | Product List | Glossary On
Versions: 1 2 3 4 5 6 7 8 9 10 11 12 13 14
000
FTUS41 KBTV 181120
TAFSLK
TAF
KSLK 181120Z 1812/1912 00000KT P6SM SCT014 SCT070
     FM181400 23009KT P6SM SCT070
     FM181500 27012KT P6SM BKN090
     FM181900 30015G25KT P6SM BKN060
     FM190200 32010KT P6SM BKN035=

USA.gov is the U.S. government's official web portal to all federal, state and local government web resources and services.